Westgard — PDBQ — position and weather

sailwx.info

Track history (hours):
 
Tides and Currents Weather Stations Pressure Air Temp Water Temp Dewpoint Dewpoint Depression Visibility Wind Speed Wind Dir Waves Ship Positions

Westgard

Last reported at 2018-Apr-24 19:51 UTC. Time now 2018-Apr-25 20:15 UTC.
Position N 60°09' E 021°41'.

Length 89 m; draft 4.6 m.

Type: Ship. MMSI: 246457000.

Date/timePositionNaut miles runAvg speedWind from/ knotsBaromVisibWave heightAir tempDewpointWater temp
2018-Apr-24 19:51N 60°09' E 021°41'411.4
2018-Apr-24 19:29N 60°04' E 021°41'611.8
2018-Apr-24 19:00N 59°59' E 021°42'611.5
2018-Apr-24 18:30N 59°54' E 021°35'611.9
2018-Apr-24 18:00N 59°51' E 021°25'510.8
2018-Apr-24 17:30N 59°46' E 021°21'611.4
2018-Apr-24 17:00N 59°41' E 021°17'611.9
2018-Apr-24 16:30N 59°36' E 021°10'59 1.5
2018-Apr-23 00:49N 59°36' E 023°07'411.5
2018-Apr-23 00:31N 59°37' E 023°14'611.5
2018-Apr-23 00:01N 59°39' E 023°24'611.6
2018-Apr-22 23:31N 59°41' E 023°35'611.6
2018-Apr-22 23:01N 59°43' E 023°46'611.4
2018-Apr-22 22:30N 59°45' E 023°56'610.9
2018-Apr-22 21:59N 59°49' E 024°05'611.2
2018-Apr-22 21:27N 59°54' E 024°11'510.3
2018-Apr-22 21:00N 59°58' E 024°05'510.6
2018-Apr-22 20:30N 60°01' E 023°57'1 1.1
2018-Apr-22 20:00N 60°01' E 023°56'0 0.0
2018-Apr-22 19:30N 60°01' E 023°56'0 0.0
2018-Apr-22 10:18N 60°01' E 023°56'0 0.0
2018-Apr-22 09:48N 60°01' E 023°56'0 0.0
2018-Apr-22 08:30N 60°01' E 023°56'0 0.0
2018-Apr-21 14:32N 60°01' E 023°56'0 0.8
2018-Apr-21 14:30N 60°01' E 023°56'9 8.5
2018-Apr-21 13:24N 59°55' E 024°11'910.8
2018-Apr-21 12:36N 59°47' E 024°04'312.0
2018-Apr-21 12:23N 59°45' E 024°01'512.4
2018-Apr-21 11:59N 59°41' E 023°55'612.2
2018-Apr-21 11:30N 59°38' E 023°45'612.3
2018-Apr-21 11:00N 59°36' E 023°34'  
2018-Apr-17 13:28N 56°17' E 016°53'712.3
2018-Apr-17 12:54N 56°10' E 016°52'612.6
2018-Apr-17 12:27N 56°05' E 016°47'712.6
2018-Apr-17 11:55N 55°60' E 016°40'512.7
2018-Apr-17 11:30N 55°56' E 016°34'612.8
2018-Apr-17 11:00N 55°50' E 016°27'612.5
2018-Apr-17 10:30N 55°45' E 016°21'612.2
2018-Apr-17 10:00N 55°40' E 016°15'712.1
2018-Apr-17 09:27N 55°34' E 016°09'1912.2
2018-Apr-17 07:55N 55°19' E 015°50'712.4
2018-Apr-17 07:23N 55°14' E 015°43'512.2
2018-Apr-17 07:00N 55°10' E 015°38'612.1
2018-Apr-17 06:30N 55°05' E 015°33'612.0
2018-Apr-17 06:00N 54°60' E 015°28'712.1
2018-Apr-17 05:24N 54°54' E 015°20'7810.3
2018-Apr-16 21:49N 53°42' E 014°30'410.8
2018-Apr-16 21:25N 53°38' E 014°34'410.3
2018-Apr-16 21:00N 53°34' E 014°36'5 9.1
2018-Apr-16 20:28N 53°29' E 014°37'4 7.9
2018-Apr-16 19:57N 53°25' E 014°37'1 1.5
2018-Apr-16 19:29N 53°25' E 014°36'0 0.0
2018-Apr-16 18:56N 53°25' E 014°36'0 0.0
2018-Apr-16 16:41N 53°25' E 014°36'0 0.0
2018-Apr-16 16:20N 53°25' E 014°36'0 0.0
2018-Apr-16 15:56N 53°25' E 014°36'0 0.0
2018-Apr-16 15:29N 53°25' E 014°36'0 0.0
2018-Apr-16 14:59N 53°25' E 014°36'0 0.0
2018-Apr-16 14:29N 53°25' E 014°36'0 0.0
2018-Apr-16 13:56N 53°25' E 014°36'0 0.0
2018-Apr-16 13:26N 53°25' E 014°36'0 0.0
2018-Apr-16 12:56N 53°25' E 014°36'0 0.0
2018-Apr-16 12:29N 53°25' E 014°36'0 0.0
2018-Apr-16 11:56N 53°25' E 014°36'0 0.0
2018-Apr-16 11:26N 53°25' E 014°36'0 0.0
2018-Apr-16 10:56N 53°25' E 014°36'0 0.0
2018-Apr-16 10:29N 53°25' E 014°36'0 0.0
2018-Apr-16 09:56N 53°25' E 014°36'0 0.0
2018-Apr-16 09:26N 53°25' E 014°36'0 0.0
2018-Apr-16 08:53N 53°25' E 014°36'0 0.0
2018-Apr-16 08:29N 53°25' E 014°36'0 0.0
2018-Apr-16 07:56N 53°25' E 014°36'0 0.0
2018-Apr-16 07:20N 53°25' E 014°36'0 0.0
2018-Apr-16 06:50N 53°25' E 014°36'0 0.0
2018-Apr-16 06:26N 53°25' E 014°36'0 0.0
2018-Apr-16 05:59N 53°25' E 014°36'0 0.0
2018-Apr-16 05:29N 53°25' E 014°36'0 0.0
2018-Apr-16 04:56N 53°25' E 014°36'0 0.0
2018-Apr-16 04:26N 53°25' E 014°36'0 0.0
2018-Apr-16 03:59N 53°25' E 014°36'0 0.0
2018-Apr-16 03:29N 53°25' E 014°36'0 0.0
2018-Apr-16 02:56N 53°25' E 014°36'0 0.0
2018-Apr-16 02:29N 53°25' E 014°36'0 0.0
2018-Apr-16 01:59N 53°25' E 014°36'0 0.0
2018-Apr-16 01:23N 53°25' E 014°36'0 0.0
2018-Apr-16 00:56N 53°25' E 014°36'0 0.0
2018-Apr-16 00:26N 53°25' E 014°36'0 0.0
2018-Apr-15 23:56N 53°25' E 014°36'0 0.0
2018-Apr-15 23:26N 53°25' E 014°36'0 0.0
2018-Apr-15 22:56N 53°25' E 014°36'0 0.0
2018-Apr-15 22:23N 53°25' E 014°36'0 0.0
2018-Apr-15 21:59N 53°25' E 014°36'0 0.0
2018-Apr-15 21:26N 53°25' E 014°36'0 0.0
2018-Apr-15 20:59N 53°25' E 014°36'0 0.0
2018-Apr-15 20:29N 53°25' E 014°36'0 0.0
2018-Apr-15 19:59N 53°25' E 014°36'0 0.0
2018-Apr-15 19:29N 53°25' E 014°36'0 0.0
2018-Apr-15 18:58N 53°25' E 014°36'0 0.0
2018-Apr-15 18:25N 53°25' E 014°36'0 0.0
2018-Apr-15 17:55N 53°25' E 014°36'0 0.0
2018-Apr-15 17:28N 53°25' E 014°36'0 0.0
2018-Apr-15 16:58N 53°25' E 014°36'0 0.0
2018-Apr-15 16:25N 53°25' E 014°36'0 0.0
2018-Apr-15 15:55N 53°25' E 014°36'0 0.0
2018-Apr-15 15:25N 53°25' E 014°36'0 0.0
2018-Apr-15 14:58N 53°25' E 014°36'0 0.0
2018-Apr-15 14:28N 53°25' E 014°36'0 0.0
2018-Apr-15 13:55N 53°25' E 014°36'0 0.0
2018-Apr-15 13:25N 53°25' E 014°36'0 0.0
2018-Apr-15 12:58N 53°25' E 014°36'0 0.0
2018-Apr-15 12:28N 53°24' E 014°36'0 0.0
2018-Apr-15 11:55N 53°24' E 014°36'0 0.0
2018-Apr-15 11:25N 53°25' E 014°36'0 0.0
2018-Apr-15 10:58N 53°25' E 014°36'0 0.0
2018-Apr-15 10:28N 53°25' E 014°36'0 0.0
2018-Apr-15 09:58N 53°25' E 014°36'0 0.0
2018-Apr-15 09:28N 53°24' E 014°36'0 0.0
2018-Apr-15 08:55N 53°25' E 014°36'0 0.0
2018-Apr-15 08:25N 53°25' E 014°36'0 0.0
2018-Apr-15 07:52N 53°25' E 014°36'0 0.0
2018-Apr-15 07:28N 53°25' E 014°36'0 0.0
2018-Apr-15 06:58N 53°25' E 014°36'0 0.0
2018-Apr-15 06:22N 53°25' E 014°36'0 0.0
2018-Apr-15 05:58N 53°24' E 014°36'0 0.0
2018-Apr-15 05:10N 53°25' E 014°36'0 0.0
2018-Apr-15 04:55N 53°25' E 014°36'0 0.0
2018-Apr-15 04:28N 53°25' E 014°36'0 0.0
2018-Apr-15 03:58N 53°25' E 014°36'0 0.0
2018-Apr-15 03:25N 53°25' E 014°36'0 0.0
2018-Apr-15 02:55N 53°25' E 014°36'0 0.0
2018-Apr-15 02:22N 53°25' E 014°36'0 0.0
2018-Apr-15 01:46N 53°25' E 014°36'0 0.0
2018-Apr-15 01:25N 53°25' E 014°36'0 0.0
2018-Apr-15 00:55N 53°25' E 014°36'0 0.0
2018-Apr-15 00:25N 53°25' E 014°36'0 0.0
2018-Apr-14 23:55N 53°25' E 014°36'0 0.0
2018-Apr-14 23:25N 53°25' E 014°36'0 0.0
2018-Apr-14 22:55N 53°25' E 014°36'0 0.0
2018-Apr-14 22:25N 53°25' E 014°36'0 0.0
2018-Apr-14 21:58N 53°25' E 014°36'0 0.0
2018-Apr-14 21:28N 53°25' E 014°36'0 0.0
2018-Apr-14 20:58N 53°25' E 014°36'0 0.0
2018-Apr-14 20:28N 53°25' E 014°36'0 0.0
2018-Apr-14 19:58N 53°25' E 014°36'  
Track history (hours):
 
Tides and Currents Weather Stations Pressure Air Temp Water Temp Dewpoint Dewpoint Depression Visibility Wind Speed Wind Dir Waves Ship Positions

Westgard

Last reported at 2018-Apr-24 19:51 UTC. Time now 2018-Apr-25 20:15 UTC.
Position N 60°09' E 021°41'.

Length 89 m; draft 4.6 m.

Type: Ship. MMSI: 246457000.

Date/timePositionNaut miles runAvg speedWind from/ knotsBaromVisibWave heightAir tempDewpointWater temp
2018-Apr-24 19:51N 60°09' E 021°41'411.4
2018-Apr-24 19:29N 60°04' E 021°41'611.8
2018-Apr-24 19:00N 59°59' E 021°42'611.5
2018-Apr-24 18:30N 59°54' E 021°35'611.9
2018-Apr-24 18:00N 59°51' E 021°25'510.8
2018-Apr-24 17:30N 59°46' E 021°21'611.4
2018-Apr-24 17:00N 59°41' E 021°17'611.9
2018-Apr-24 16:30N 59°36' E 021°10'59 1.5
2018-Apr-23 00:49N 59°36' E 023°07'411.5
2018-Apr-23 00:31N 59°37' E 023°14'611.5
2018-Apr-23 00:01N 59°39' E 023°24'611.6
2018-Apr-22 23:31N 59°41' E 023°35'611.6
2018-Apr-22 23:01N 59°43' E 023°46'611.4
2018-Apr-22 22:30N 59°45' E 023°56'610.9
2018-Apr-22 21:59N 59°49' E 024°05'611.2
2018-Apr-22 21:27N 59°54' E 024°11'510.3
2018-Apr-22 21:00N 59°58' E 024°05'510.6
2018-Apr-22 20:30N 60°01' E 023°57'1 1.1
2018-Apr-22 20:00N 60°01' E 023°56'0 0.0
2018-Apr-22 19:30N 60°01' E 023°56'0 0.0
2018-Apr-22 10:18N 60°01' E 023°56'0 0.0
2018-Apr-22 09:48N 60°01' E 023°56'0 0.0
2018-Apr-22 08:30N 60°01' E 023°56'0 0.0
2018-Apr-21 14:32N 60°01' E 023°56'0 0.8
2018-Apr-21 14:30N 60°01' E 023°56'9 8.5
2018-Apr-21 13:24N 59°55' E 024°11'910.8
2018-Apr-21 12:36N 59°47' E 024°04'312.0
2018-Apr-21 12:23N 59°45' E 024°01'512.4
2018-Apr-21 11:59N 59°41' E 023°55'612.2
2018-Apr-21 11:30N 59°38' E 023°45'612.3
2018-Apr-21 11:00N 59°36' E 023°34'  
2018-Apr-17 13:28N 56°17' E 016°53'712.3
2018-Apr-17 12:54N 56°10' E 016°52'612.6
2018-Apr-17 12:27N 56°05' E 016°47'712.6
2018-Apr-17 11:55N 55°60' E 016°40'512.7
2018-Apr-17 11:30N 55°56' E 016°34'612.8
2018-Apr-17 11:00N 55°50' E 016°27'612.5
2018-Apr-17 10:30N 55°45' E 016°21'612.2
2018-Apr-17 10:00N 55°40' E 016°15'712.1
2018-Apr-17 09:27N 55°34' E 016°09'1912.2
2018-Apr-17 07:55N 55°19' E 015°50'712.4
2018-Apr-17 07:23N 55°14' E 015°43'512.2
2018-Apr-17 07:00N 55°10' E 015°38'612.1
2018-Apr-17 06:30N 55°05' E 015°33'612.0
2018-Apr-17 06:00N 54°60' E 015°28'712.1
2018-Apr-17 05:24N 54°54' E 015°20'7810.3
2018-Apr-16 21:49N 53°42' E 014°30'410.8
2018-Apr-16 21:25N 53°38' E 014°34'410.3
2018-Apr-16 21:00N 53°34' E 014°36'5 9.1
2018-Apr-16 20:28N 53°29' E 014°37'4 7.9
2018-Apr-16 19:57N 53°25' E 014°37'1 1.5
2018-Apr-16 19:29N 53°25' E 014°36'0 0.0
2018-Apr-16 18:56N 53°25' E 014°36'0 0.0
2018-Apr-16 16:41N 53°25' E 014°36'0 0.0
2018-Apr-16 16:20N 53°25' E 014°36'0 0.0
2018-Apr-16 15:56N 53°25' E 014°36'0 0.0
2018-Apr-16 15:29N 53°25' E 014°36'0 0.0
2018-Apr-16 14:59N 53°25' E 014°36'0 0.0
2018-Apr-16 14:29N 53°25' E 014°36'0 0.0
2018-Apr-16 13:56N 53°25' E 014°36'0 0.0
2018-Apr-16 13:26N 53°25' E 014°36'0 0.0
2018-Apr-16 12:56N 53°25' E 014°36'0 0.0
2018-Apr-16 12:29N 53°25' E 014°36'0 0.0
2018-Apr-16 11:56N 53°25' E 014°36'0 0.0
2018-Apr-16 11:26N 53°25' E 014°36'0 0.0
2018-Apr-16 10:56N 53°25' E 014°36'0 0.0
2018-Apr-16 10:29N 53°25' E 014°36'0 0.0
2018-Apr-16 09:56N 53°25' E 014°36'0 0.0
2018-Apr-16 09:26N 53°25' E 014°36'0 0.0
2018-Apr-16 08:53N 53°25' E 014°36'0 0.0
2018-Apr-16 08:29N 53°25' E 014°36'0 0.0
2018-Apr-16 07:56N 53°25' E 014°36'0 0.0
2018-Apr-16 07:20N 53°25' E 014°36'0 0.0
2018-Apr-16 06:50N 53°25' E 014°36'0 0.0
2018-Apr-16 06:26N 53°25' E 014°36'0 0.0
2018-Apr-16 05:59N 53°25' E 014°36'0 0.0
2018-Apr-16 05:29N 53°25' E 014°36'0 0.0
2018-Apr-16 04:56N 53°25' E 014°36'0 0.0
2018-Apr-16 04:26N 53°25' E 014°36'0 0.0
2018-Apr-16 03:59N 53°25' E 014°36'0 0.0
2018-Apr-16 03:29N 53°25' E 014°36'0 0.0
2018-Apr-16 02:56N 53°25' E 014°36'0 0.0
2018-Apr-16 02:29N 53°25' E 014°36'0 0.0
2018-Apr-16 01:59N 53°25' E 014°36'0 0.0
2018-Apr-16 01:23N 53°25' E 014°36'0 0.0
2018-Apr-16 00:56N 53°25' E 014°36'0 0.0
2018-Apr-16 00:26N 53°25' E 014°36'0 0.0
2018-Apr-15 23:56N 53°25' E 014°36'0 0.0
2018-Apr-15 23:26N 53°25' E 014°36'0 0.0
2018-Apr-15 22:56N 53°25' E 014°36'0 0.0
2018-Apr-15 22:23N 53°25' E 014°36'0 0.0
2018-Apr-15 21:59N 53°25' E 014°36'0 0.0
2018-Apr-15 21:26N 53°25' E 014°36'0 0.0
2018-Apr-15 20:59N 53°25' E 014°36'0 0.0
2018-Apr-15 20:29N 53°25' E 014°36'0 0.0
2018-Apr-15 19:59N 53°25' E 014°36'0 0.0
2018-Apr-15 19:29N 53°25' E 014°36'0 0.0
2018-Apr-15 18:58N 53°25' E 014°36'0 0.0
2018-Apr-15 18:25N 53°25' E 014°36'0 0.0
2018-Apr-15 17:55N 53°25' E 014°36'0 0.0
2018-Apr-15 17:28N 53°25' E 014°36'0 0.0
2018-Apr-15 16:58N 53°25' E 014°36'0 0.0
2018-Apr-15 16:25N 53°25' E 014°36'0 0.0
2018-Apr-15 15:55N 53°25' E 014°36'0 0.0
2018-Apr-15 15:25N 53°25' E 014°36'0 0.0
2018-Apr-15 14:58N 53°25' E 014°36'0 0.0
2018-Apr-15 14:28N 53°25' E 014°36'0 0.0
2018-Apr-15 13:55N 53°25' E 014°36'0 0.0
2018-Apr-15 13:25N 53°25' E 014°36'0 0.0
2018-Apr-15 12:58N 53°25' E 014°36'0 0.0
2018-Apr-15 12:28N 53°24' E 014°36'0 0.0
2018-Apr-15 11:55N 53°24' E 014°36'0 0.0
2018-Apr-15 11:25N 53°25' E 014°36'0 0.0
2018-Apr-15 10:58N 53°25' E 014°36'0 0.0
2018-Apr-15 10:28N 53°25' E 014°36'0 0.0
2018-Apr-15 09:58N 53°25' E 014°36'0 0.0
2018-Apr-15 09:28N 53°24' E 014°36'0 0.0
2018-Apr-15 08:55N 53°25' E 014°36'0 0.0
2018-Apr-15 08:25N 53°25' E 014°36'0 0.0
2018-Apr-15 07:52N 53°25' E 014°36'0 0.0
2018-Apr-15 07:28N 53°25' E 014°36'0 0.0
2018-Apr-15 06:58N 53°25' E 014°36'0 0.0
2018-Apr-15 06:22N 53°25' E 014°36'0 0.0
2018-Apr-15 05:58N 53°24' E 014°36'0 0.0
2018-Apr-15 05:10N 53°25' E 014°36'0 0.0
2018-Apr-15 04:55N 53°25' E 014°36'0 0.0
2018-Apr-15 04:28N 53°25' E 014°36'0 0.0
2018-Apr-15 03:58N 53°25' E 014°36'0 0.0
2018-Apr-15 03:25N 53°25' E 014°36'0 0.0
2018-Apr-15 02:55N 53°25' E 014°36'0 0.0
2018-Apr-15 02:22N 53°25' E 014°36'0 0.0
2018-Apr-15 01:46N 53°25' E 014°36'0 0.0
2018-Apr-15 01:25N 53°25' E 014°36'0 0.0
2018-Apr-15 00:55N 53°25' E 014°36'0 0.0
2018-Apr-15 00:25N 53°25' E 014°36'0 0.0
2018-Apr-14 23:55N 53°25' E 014°36'0 0.0
2018-Apr-14 23:25N 53°25' E 014°36'0 0.0
2018-Apr-14 22:55N 53°25' E 014°36'0 0.0
2018-Apr-14 22:25N 53°25' E 014°36'0 0.0
2018-Apr-14 21:58N 53°25' E 014°36'0 0.0
2018-Apr-14 21:28N 53°25' E 014°36'0 0.0
2018-Apr-14 20:58N 53°25' E 014°36'0 0.0
2018-Apr-14 20:28N 53°25' E 014°36'0 0.0
2018-Apr-14 19:58N 53°25' E 014°36'  

Dump ship's entire track history